createdAt,value
2022-11-15T00:02:52.999Z,18.88
2022-11-15T00:05:55.210Z,18.88
2022-11-15T00:08:59.841Z,18.88
2022-11-15T00:12:01.911Z,18.81
2022-11-15T00:15:04.263Z,18.88
2022-11-15T00:18:06.922Z,18.88
2022-11-15T00:21:11.563Z,18.81
2022-11-15T00:24:13.599Z,18.88
2022-11-15T00:27:15.669Z,18.81
2022-11-15T00:30:17.750Z,18.81
2022-11-15T00:33:20.194Z,18.81
2022-11-15T00:36:22.197Z,18.81
2022-11-15T00:39:24.209Z,18.81
2022-11-15T00:42:26.184Z,18.81
2022-11-15T00:45:28.344Z,18.81
2022-11-15T00:48:30.772Z,18.81
2022-11-15T00:51:32.843Z,18.81
2022-11-15T00:54:34.943Z,18.81
2022-11-15T00:57:37.091Z,18.81
2022-11-15T01:00:39.210Z,18.75
2022-11-15T01:03:42.867Z,18.81
2022-11-15T01:06:44.916Z,18.75
2022-11-15T01:09:47.203Z,18.75
2022-11-15T01:12:49.794Z,18.75
2022-11-15T01:15:51.802Z,18.75
2022-11-15T01:18:53.827Z,18.75
2022-11-15T01:21:55.870Z,18.75
2022-11-15T01:24:57.930Z,18.75
2022-11-15T01:27:59.955Z,18.75
2022-11-15T01:31:07.659Z,18.75
2022-11-15T01:34:09.661Z,18.75
2022-11-15T01:37:11.778Z,18.69
2022-11-15T01:40:14.044Z,18.69
2022-11-15T01:43:31.847Z,18.69
2022-11-15T01:46:36.590Z,18.69
2022-11-15T01:49:42.865Z,18.69
2022-11-15T01:52:45.114Z,18.69
2022-11-15T01:55:47.527Z,18.69
2022-11-15T01:58:49.993Z,18.69
2022-11-15T02:01:52.461Z,18.69
2022-11-15T02:04:54.505Z,18.63
2022-11-15T02:07:56.987Z,18.69
2022-11-15T02:10:59.014Z,18.69
2022-11-15T02:14:02.524Z,18.63
2022-11-15T02:17:44.056Z,18.63
2022-11-15T02:20:53.514Z,18.63
2022-11-15T02:24:19.746Z,18.63
2022-11-15T02:27:58.276Z,18.63
2022-11-15T02:31:23.919Z,18.56
2022-11-15T02:34:54.814Z,18.63
2022-11-15T02:38:01.549Z,18.63
2022-11-15T02:41:15.812Z,18.63
2022-11-15T02:44:37.844Z,18.56
2022-11-15T02:47:46.143Z,18.63
2022-11-15T02:50:48.812Z,18.56
2022-11-15T02:53:50.808Z,18.63
2022-11-15T02:56:56.892Z,18.63
2022-11-15T03:00:08.481Z,18.56
2022-11-15T03:03:10.549Z,18.56
2022-11-15T03:06:27.628Z,18.56
2022-11-15T03:09:45.334Z,18.56
2022-11-15T03:12:51.853Z,18.63
2022-11-15T03:16:11.205Z,18.50
2022-11-15T03:19:15.148Z,18.56
2022-11-15T03:22:20.811Z,18.56
2022-11-15T03:25:26.677Z,18.56
2022-11-15T03:28:36.098Z,18.50
2022-11-15T03:31:50.917Z,18.56
2022-11-15T03:34:57.201Z,18.50
2022-11-15T03:38:15.444Z,18.50
2022-11-15T03:41:25.774Z,18.50
2022-11-15T03:44:57.557Z,18.50
2022-11-15T03:48:22.287Z,18.56
2022-11-15T03:51:24.385Z,18.56
2022-11-15T03:54:26.542Z,18.50
2022-11-15T03:57:28.836Z,18.56
2022-11-15T04:00:30.928Z,18.50
2022-11-15T04:03:33.125Z,18.44
2022-11-15T04:06:35.633Z,18.44
2022-11-15T04:09:56.269Z,18.44
2022-11-15T04:12:58.284Z,18.44
2022-11-15T04:16:00.319Z,18.44
2022-11-15T04:19:21.264Z,18.44
2022-11-15T04:22:42.103Z,18.50
2022-11-15T04:25:44.692Z,18.44
2022-11-15T04:29:05.171Z,18.44
2022-11-15T04:32:08.076Z,18.63
2022-11-15T04:35:10.164Z,18.81
2022-11-15T04:38:12.543Z,18.94
2022-11-15T04:41:14.573Z,19.00
2022-11-15T04:44:17.295Z,19.06
2022-11-15T04:47:19.785Z,19.06
2022-11-15T04:50:21.786Z,19.06
2022-11-15T04:53:23.840Z,19.13
2022-11-15T04:56:25.905Z,19.13
2022-11-15T04:59:27.896Z,19.19
2022-11-15T05:02:49.892Z,19.13
2022-11-15T05:05:51.939Z,19.19
2022-11-15T05:08:53.984Z,19.25
2022-11-15T05:11:55.988Z,19.31
2022-11-15T05:14:58.006Z,19.38
2022-11-15T05:18:01.441Z,19.38
2022-11-15T05:21:12.122Z,19.38
2022-11-15T05:24:14.195Z,19.38
2022-11-15T05:27:16.223Z,19.38
2022-11-15T05:30:18.367Z,19.38
2022-11-15T05:33:20.629Z,19.31
2022-11-15T05:36:46.681Z,19.38
2022-11-15T05:39:48.741Z,19.44
2022-11-15T05:42:51.092Z,19.50
2022-11-15T05:45:53.456Z,19.50
2022-11-15T05:48:56.353Z,19.50
2022-11-15T05:51:59.234Z,19.56
2022-11-15T05:55:02.125Z,19.69
2022-11-15T05:58:04.194Z,19.75
2022-11-15T06:01:06.630Z,19.75
2022-11-15T06:04:08.754Z,19.81
2022-11-15T06:07:10.824Z,19.81
2022-11-15T06:10:12.968Z,19.75
2022-11-15T06:13:15.094Z,19.75
2022-11-15T06:16:17.094Z,19.69
2022-11-15T06:19:19.171Z,19.75
2022-11-15T06:22:21.753Z,19.75
2022-11-15T06:25:23.797Z,19.69
2022-11-15T06:28:28.644Z,19.69
2022-11-15T06:31:30.760Z,19.69
2022-11-15T06:34:32.896Z,19.75
2022-11-15T06:37:35.284Z,19.81
2022-11-15T06:40:38.506Z,19.81
2022-11-15T06:43:41.759Z,19.81
2022-11-15T06:46:43.797Z,19.81
2022-11-15T06:49:45.853Z,19.75
2022-11-15T06:52:48.089Z,19.75
2022-11-15T06:55:55.054Z,19.75
2022-11-15T06:58:57.573Z,19.88
2022-11-15T07:01:59.594Z,19.88
2022-11-15T07:05:01.620Z,19.94
2022-11-15T07:08:03.931Z,20.06
2022-11-15T07:11:08.382Z,20.13
2022-11-15T07:14:10.453Z,20.19
2022-11-15T07:17:12.506Z,20.31
2022-11-15T07:20:15.309Z,20.50
2022-11-15T07:23:17.290Z,20.63
2022-11-15T07:26:19.560Z,20.69
2022-11-15T07:29:21.910Z,20.63
2022-11-15T07:32:23.941Z,20.75
2022-11-15T07:35:29.016Z,20.81
2022-11-15T07:38:31.357Z,20.81
2022-11-15T07:41:33.374Z,20.94
2022-11-15T07:44:35.375Z,21.00
2022-11-15T07:47:37.472Z,21.00
2022-11-15T07:50:43.156Z,21.00
2022-11-15T07:53:45.606Z,21.00
2022-11-15T07:56:47.672Z,21.06
2022-11-15T07:59:49.950Z,21.00
2022-11-15T08:02:52.220Z,21.00
2022-11-15T08:05:54.415Z,20.94
2022-11-15T08:08:56.574Z,21.00
2022-11-15T08:11:58.554Z,21.00
2022-11-15T08:15:00.636Z,21.06
2022-11-15T08:18:07.282Z,21.06
2022-11-15T08:21:17.146Z,21.00
2022-11-15T08:24:21.379Z,21.00
2022-11-15T08:27:23.437Z,20.88
2022-11-15T08:30:26.038Z,20.88
2022-11-15T08:33:28.888Z,20.81
2022-11-15T08:36:38.042Z,20.81
2022-11-15T08:39:45.281Z,20.75
2022-11-15T08:42:48.381Z,20.69
2022-11-15T08:45:50.361Z,20.69
2022-11-15T08:48:52.413Z,20.69
2022-11-15T08:51:54.491Z,20.69
2022-11-15T08:54:56.503Z,20.69
2022-11-15T08:57:59.264Z,20.63
2022-11-15T09:01:01.365Z,20.63
2022-11-15T09:04:04.796Z,20.56
2022-11-15T09:07:06.879Z,20.56
2022-11-15T09:10:09.332Z,20.56
2022-11-15T09:13:11.429Z,20.44
2022-11-15T09:16:13.715Z,20.50
2022-11-15T09:19:16.068Z,20.44
2022-11-15T09:22:18.054Z,20.44
2022-11-15T09:25:20.045Z,20.44
2022-11-15T09:28:22.139Z,20.44
2022-11-15T09:31:24.414Z,20.38
2022-11-15T09:34:27.065Z,20.38
2022-11-15T09:37:29.185Z,20.38
2022-11-15T09:40:33.269Z,20.38
2022-11-15T09:44:21.146Z,20.44
2022-11-15T09:47:54.933Z,20.38
2022-11-15T09:50:59.692Z,20.31
2022-11-15T09:57:40.993Z,20.31
2022-11-15T10:00:49.534Z,20.31
2022-11-15T10:03:51.853Z,20.31
2022-11-15T10:07:19.955Z,20.31
2022-11-15T10:10:30.603Z,20.31
2022-11-15T10:13:40.956Z,20.31
2022-11-15T10:16:57.766Z,20.25
2022-11-15T10:20:11.820Z,20.31
2022-11-15T10:23:17.133Z,20.31
2022-11-15T10:26:19.259Z,20.25
2022-11-15T10:29:26.978Z,20.25
2022-11-15T10:32:30.130Z,20.25
2022-11-15T10:35:32.178Z,20.19
2022-11-15T10:38:34.596Z,20.19
2022-11-15T10:41:39.560Z,20.19
2022-11-15T10:44:44.501Z,20.19
2022-11-15T10:47:46.476Z,20.19
2022-11-15T10:50:50.638Z,20.19
2022-11-15T10:53:53.234Z,20.19
2022-11-15T10:56:59.418Z,20.25
2022-11-15T11:00:20.051Z,20.25
2022-11-15T11:03:36.030Z,20.25
2022-11-15T11:06:56.030Z,20.31
2022-11-15T11:10:50.855Z,20.31
2022-11-15T11:13:43.681Z,20.31
2022-11-15T11:17:10.207Z,20.25
2022-11-15T11:20:28.513Z,20.31
2022-11-15T11:23:53.492Z,20.25
2022-11-15T11:27:30.535Z,20.19
2022-11-15T11:30:41.490Z,20.06
2022-11-15T11:33:59.194Z,19.94
2022-11-15T11:37:24.153Z,17.75
2022-11-15T11:40:38.029Z,17.69
2022-11-15T11:43:43.225Z,17.38
2022-11-15T11:46:56.804Z,18.06
2022-11-15T11:50:05.019Z,18.13
2022-11-15T11:53:49.214Z,18.44
2022-11-15T11:56:52.521Z,19.13
2022-11-15T12:00:14.992Z,19.50
2022-11-15T12:03:38.317Z,19.63
2022-11-15T12:07:09.928Z,19.69
2022-11-15T12:10:29.219Z,19.75
2022-11-15T12:13:35.510Z,19.75
2022-11-15T12:16:39.494Z,19.75
2022-11-15T12:19:43.631Z,19.81
2022-11-15T12:22:48.872Z,19.81
2022-11-15T12:26:15.435Z,19.88
2022-11-15T12:29:24.582Z,19.88
2022-11-15T12:32:36.322Z,19.94
2022-11-15T12:35:41.917Z,20.00
2022-11-15T12:38:54.203Z,20.00
2022-11-15T12:41:56.250Z,20.06
2022-11-15T12:45:00.409Z,20.00
2022-11-15T12:48:17.497Z,20.00
2022-11-15T12:51:23.003Z,20.06
2022-11-15T12:54:24.967Z,20.00
2022-11-15T12:57:29.349Z,20.00
2022-11-15T13:00:33.829Z,20.06
2022-11-15T13:03:36.009Z,20.00
2022-11-15T13:06:44.219Z,20.00
2022-11-15T13:09:46.205Z,20.00
2022-11-15T13:12:48.227Z,20.00
2022-11-15T13:16:00.177Z,20.06
2022-11-15T13:19:03.911Z,20.00
2022-11-15T13:22:28.613Z,20.06
2022-11-15T13:25:58.165Z,20.06
2022-11-15T13:29:01.588Z,20.06
2022-11-15T13:32:03.706Z,19.88
2022-11-15T13:35:08.625Z,19.94
2022-11-15T13:38:40.830Z,19.94
2022-11-15T13:41:51.531Z,20.00
2022-11-15T13:45:02.394Z,19.94
2022-11-15T13:48:04.894Z,20.00
2022-11-15T13:51:18.555Z,20.00
2022-11-15T13:54:45.118Z,20.00
2022-11-15T13:57:59.277Z,20.00
2022-11-15T14:01:06.036Z,20.19
2022-11-15T14:04:12.039Z,20.19
2022-11-15T14:07:20.352Z,20.13
2022-11-15T14:10:37.104Z,20.13
2022-11-15T14:13:39.294Z,20.19
2022-11-15T14:16:54.349Z,20.25
2022-11-15T14:19:57.650Z,20.25
2022-11-15T14:23:07.029Z,20.13
2022-11-15T14:26:31.817Z,20.19
2022-11-15T14:29:33.938Z,20.19
2022-11-15T14:32:47.758Z,20.25
2022-11-15T14:35:50.982Z,20.25
2022-11-15T14:38:53.054Z,20.31
2022-11-15T14:41:55.064Z,20.25
2022-11-15T14:44:57.082Z,20.25
2022-11-15T14:47:59.161Z,20.19
2022-11-15T14:51:01.176Z,20.19
2022-11-15T14:54:03.273Z,20.13
2022-11-15T14:57:05.298Z,20.13
2022-11-15T15:00:09.321Z,20.13
2022-11-15T15:03:11.834Z,20.06
2022-11-15T15:06:18.003Z,20.13
2022-11-15T15:09:20.536Z,20.13
2022-11-15T15:12:24.076Z,20.13
2022-11-15T15:15:32.052Z,20.06
2022-11-15T15:18:34.437Z,20.06
2022-11-15T15:21:37.661Z,20.06
2022-11-15T15:24:39.866Z,20.06
2022-11-15T15:27:42.041Z,20.00
2022-11-15T15:30:44.540Z,20.00
2022-11-15T15:33:46.644Z,20.06
2022-11-15T15:36:48.653Z,20.00
2022-11-15T15:39:54.990Z,20.00
2022-11-15T15:42:57.002Z,20.00
2022-11-15T15:45:59.625Z,19.94
2022-11-15T15:49:01.684Z,19.94
2022-11-15T15:52:03.702Z,19.94
2022-11-15T15:55:06.039Z,19.88
2022-11-15T15:58:09.098Z,19.94
2022-11-15T16:01:11.212Z,19.94
2022-11-15T16:04:13.304Z,20.06
2022-11-15T16:07:22.038Z,20.00
2022-11-15T16:10:28.415Z,20.06
2022-11-15T16:13:30.480Z,19.94
2022-11-15T16:16:32.859Z,19.94
2022-11-15T16:19:34.841Z,20.00
2022-11-15T16:22:36.834Z,19.94
2022-11-15T16:25:43.648Z,19.94
2022-11-15T16:28:45.651Z,19.94
2022-11-15T16:31:47.677Z,19.88
2022-11-15T16:34:49.932Z,19.94
2022-11-15T16:37:52.066Z,19.88
2022-11-15T16:40:54.071Z,19.88
2022-11-15T16:43:56.200Z,19.88
2022-11-15T16:46:58.272Z,19.81
2022-11-15T16:50:00.296Z,19.88
2022-11-15T16:53:02.450Z,19.81
2022-11-15T16:56:04.617Z,19.81
2022-11-15T16:59:06.993Z,19.81
2022-11-15T17:02:15.356Z,19.81
2022-11-15T17:05:20.345Z,19.81
2022-11-15T17:08:24.295Z,19.81
2022-11-15T17:11:26.337Z,19.81
2022-11-15T17:14:28.371Z,19.81
2022-11-15T17:17:31.371Z,19.81
2022-11-15T17:20:33.572Z,19.81
2022-11-15T17:23:35.646Z,19.81
2022-11-15T17:26:40.823Z,19.81
2022-11-15T17:29:43.134Z,19.81
2022-11-15T17:32:45.320Z,19.75
2022-11-15T17:35:54.663Z,19.81
2022-11-15T17:38:59.789Z,19.75
2022-11-15T17:42:02.307Z,19.81
2022-11-15T17:45:09.497Z,19.75
2022-11-15T17:48:14.746Z,19.75
2022-11-15T17:51:18.781Z,19.75
2022-11-15T17:54:20.852Z,19.75
2022-11-15T17:57:22.934Z,19.75
2022-11-15T18:00:25.043Z,19.69
2022-11-15T18:03:27.029Z,19.75
2022-11-15T18:06:31.747Z,19.69
2022-11-15T18:09:34.144Z,19.69
2022-11-15T18:12:36.141Z,19.69
2022-11-15T18:15:38.126Z,19.69
2022-11-15T18:18:40.989Z,19.69
2022-11-15T18:21:56.634Z,19.69
2022-11-15T18:24:58.930Z,19.69
2022-11-15T18:28:01.025Z,19.69
2022-11-15T18:31:04.969Z,19.69
2022-11-15T18:34:06.967Z,19.69
2022-11-15T18:37:09.278Z,19.69
2022-11-15T18:40:11.537Z,19.69
2022-11-15T18:43:13.535Z,19.69
2022-11-15T18:46:18.269Z,19.69
2022-11-15T18:49:20.489Z,19.69
2022-11-15T18:52:22.675Z,19.63
2022-11-15T18:55:24.680Z,19.63
2022-11-15T18:58:30.313Z,19.63
2022-11-15T19:01:37.054Z,19.63
2022-11-15T19:04:39.122Z,19.69
2022-11-15T19:07:41.199Z,19.63
2022-11-15T19:10:43.323Z,19.63
2022-11-15T19:13:46.412Z,19.63
2022-11-15T19:16:52.549Z,19.63
2022-11-15T19:19:54.745Z,19.63
2022-11-15T19:22:56.739Z,19.69
2022-11-15T19:26:00.892Z,19.63
2022-11-15T19:29:03.549Z,19.56
2022-11-15T19:32:05.707Z,19.63
2022-11-15T19:35:07.968Z,19.63
2022-11-15T19:38:10.034Z,19.56
2022-11-15T19:41:15.162Z,19.63
2022-11-15T19:44:18.766Z,19.63
2022-11-15T19:47:21.136Z,19.56
2022-11-15T19:50:23.163Z,19.63
2022-11-15T19:53:27.381Z,19.56
2022-11-15T19:56:34.806Z,19.56
2022-11-15T19:59:36.836Z,19.56
2022-11-15T20:02:38.888Z,19.56
2022-11-15T20:05:40.889Z,19.56
2022-11-15T20:08:43.817Z,19.63
2022-11-15T20:11:46.021Z,19.56
2022-11-15T20:14:48.141Z,19.56
2022-11-15T20:17:50.193Z,19.56
2022-11-15T20:20:52.732Z,19.50
2022-11-15T20:23:56.007Z,19.56
2022-11-15T20:26:58.345Z,19.56
2022-11-15T20:30:00.349Z,19.56
2022-11-15T20:33:02.667Z,19.56
2022-11-15T20:36:12.277Z,19.56
2022-11-15T20:39:14.272Z,19.56
2022-11-15T20:42:16.286Z,19.56
2022-11-15T20:45:18.326Z,19.50
2022-11-15T20:48:21.801Z,19.50
2022-11-15T20:51:23.869Z,19.50
2022-11-15T20:54:25.892Z,19.50
2022-11-15T20:57:28.140Z,19.56
2022-11-15T21:00:30.157Z,19.50
2022-11-15T21:03:32.700Z,19.50
2022-11-15T21:06:34.759Z,19.50
2022-11-15T21:09:55.464Z,19.50
2022-11-15T21:12:57.484Z,19.50
2022-11-15T21:15:59.469Z,19.50
2022-11-15T21:19:01.451Z,19.50
2022-11-15T21:22:04.537Z,19.44
2022-11-15T21:25:06.821Z,19.44
2022-11-15T21:28:08.840Z,19.50
2022-11-15T21:31:10.858Z,19.50
2022-11-15T21:34:13.784Z,19.44
2022-11-15T21:37:15.887Z,19.50
2022-11-15T21:40:18.049Z,19.44
2022-11-15T21:43:20.919Z,19.44
2022-11-15T21:46:23.030Z,19.44
2022-11-15T21:49:25.106Z,19.44
2022-11-15T21:52:27.138Z,19.44
2022-11-15T21:55:29.192Z,19.38
2022-11-15T21:58:31.791Z,19.44
2022-11-15T22:01:52.713Z,19.44
2022-11-15T22:04:54.730Z,19.44
2022-11-15T22:07:56.732Z,19.44
2022-11-15T22:10:59.043Z,19.44
2022-11-15T22:14:01.305Z,19.44
2022-11-15T22:17:03.388Z,19.44
2022-11-15T22:20:23.163Z,19.44
2022-11-15T22:23:30.259Z,19.44
2022-11-15T22:26:32.390Z,19.38
2022-11-15T22:29:34.435Z,19.44
2022-11-15T22:32:36.506Z,19.38
2022-11-15T22:35:39.116Z,19.38
2022-11-15T22:38:41.191Z,19.38
2022-11-15T22:41:43.827Z,19.38
2022-11-15T22:44:49.330Z,19.38
2022-11-15T22:47:51.547Z,19.31
2022-11-15T22:50:53.906Z,19.31
2022-11-15T22:53:56.051Z,19.31
2022-11-15T22:56:58.606Z,19.31
2022-11-15T23:00:00.633Z,19.31
2022-11-15T23:03:03.439Z,19.25
2022-11-15T23:06:07.430Z,19.31
2022-11-15T23:09:09.955Z,19.25
2022-11-15T23:12:31.058Z,19.31
2022-11-15T23:15:51.774Z,19.31
2022-11-15T23:18:59.319Z,19.25
2022-11-15T23:22:19.958Z,19.25
2022-11-15T23:25:21.978Z,19.25
2022-11-15T23:28:23.992Z,19.25
2022-11-15T23:31:44.835Z,19.19
2022-11-15T23:34:46.930Z,19.25
2022-11-15T23:37:48.980Z,19.25
2022-11-15T23:40:54.984Z,19.25
2022-11-15T23:43:57.055Z,19.25
2022-11-15T23:46:59.110Z,19.25
2022-11-15T23:50:01.148Z,19.19
2022-11-15T23:53:03.957Z,19.19
2022-11-15T23:56:12.207Z,19.19
2022-11-15T23:59:14.241Z,19.19
